sensor_id;sensor_type;location;lat;lon;timestamp;temperature;humidity
23827;DHT22;12094;50.822;4.376;2023-12-20T00:00:02;7.90;99.90
23827;DHT22;12094;50.822;4.376;2023-12-20T00:02:31;7.80;99.90
23827;DHT22;12094;50.822;4.376;2023-12-20T00:04:58;7.90;99.90
23827;DHT22;12094;50.822;4.376;2023-12-20T00:07:25;7.80;99.90
23827;DHT22;12094;50.822;4.376;2023-12-20T00:09:52;7.90;99.90
23827;DHT22;12094;50.822;4.376;2023-12-20T00:12:19;7.90;99.90
23827;DHT22;12094;50.822;4.376;2023-12-20T00:14:46;7.80;99.90
23827;DHT22;12094;50.822;4.376;2023-12-20T00:17:13;7.80;99.90
23827;DHT22;12094;50.822;4.376;2023-12-20T00:19:40;7.90;99.90
23827;DHT22;12094;50.822;4.376;2023-12-20T00:22:09;7.80;99.90
23827;DHT22;12094;50.822;4.376;2023-12-20T00:24:36;7.80;99.90
23827;DHT22;12094;50.822;4.376;2023-12-20T00:27:03;7.80;99.90
23827;DHT22;12094;50.822;4.376;2023-12-20T00:29:31;7.70;99.90
23827;DHT22;12094;50.822;4.376;2023-12-20T00:31:58;7.60;99.90
23827;DHT22;12094;50.822;4.376;2023-12-20T00:34:25;7.70;99.90
23827;DHT22;12094;50.822;4.376;2023-12-20T00:36:52;7.50;99.90
23827;DHT22;12094;50.822;4.376;2023-12-20T00:39:20;7.50;99.90
23827;DHT22;12094;50.822;4.376;2023-12-20T00:41:47;7.50;99.90
23827;DHT22;12094;50.822;4.376;2023-12-20T00:44:13;7.50;99.90
23827;DHT22;12094;50.822;4.376;2023-12-20T00:46:41;7.50;99.90
23827;DHT22;12094;50.822;4.376;2023-12-20T00:49:09;7.30;99.90
23827;DHT22;12094;50.822;4.376;2023-12-20T00:51:37;7.30;99.90
23827;DHT22;12094;50.822;4.376;2023-12-20T00:54:04;7.30;99.90
23827;DHT22;12094;50.822;4.376;2023-12-20T00:56:32;7.40;99.90
23827;DHT22;12094;50.822;4.376;2023-12-20T00:59:00;7.40;99.90
23827;DHT22;12094;50.822;4.376;2023-12-20T01:01:28;7.40;99.90
23827;DHT22;12094;50.822;4.376;2023-12-20T01:03:55;7.40;99.90
23827;DHT22;12094;50.822;4.376;2023-12-20T01:06:23;7.10;99.90
23827;DHT22;12094;50.822;4.376;2023-12-20T01:08:51;7.00;99.90
23827;DHT22;12094;50.822;4.376;2023-12-20T01:11:18;7.10;99.90
23827;DHT22;12094;50.822;4.376;2023-12-20T01:13:45;7.10;99.90
23827;DHT22;12094;50.822;4.376;2023-12-20T01:16:12;7.00;99.90
23827;DHT22;12094;50.822;4.376;2023-12-20T01:18:40;7.10;99.90
23827;DHT22;12094;50.822;4.376;2023-12-20T01:21:08;7.00;99.90
23827;DHT22;12094;50.822;4.376;2023-12-20T01:23:35;7.20;99.90
23827;DHT22;12094;50.822;4.376;2023-12-20T01:26:02;7.10;99.90
23827;DHT22;12094;50.822;4.376;2023-12-20T01:28:32;7.20;99.90
23827;DHT22;12094;50.822;4.376;2023-12-20T01:30:59;7.20;99.90
23827;DHT22;12094;50.822;4.376;2023-12-20T01:33:27;7.20;99.90
23827;DHT22;12094;50.822;4.376;2023-12-20T01:35:54;7.10;99.90
23827;DHT22;12094;50.822;4.376;2023-12-20T01:38:22;7.00;99.90
23827;DHT22;12094;50.822;4.376;2023-12-20T01:40:49;7.10;99.90
23827;DHT22;12094;50.822;4.376;2023-12-20T01:43:17;7.00;99.90
23827;DHT22;12094;50.822;4.376;2023-12-20T01:45:44;7.00;99.90
23827;DHT22;12094;50.822;4.376;2023-12-20T01:48:12;7.00;99.90
23827;DHT22;12094;50.822;4.376;2023-12-20T01:50:40;7.00;99.90
23827;DHT22;12094;50.822;4.376;2023-12-20T01:53:08;6.80;99.90
23827;DHT22;12094;50.822;4.376;2023-12-20T01:55:38;6.80;99.90
23827;DHT22;12094;50.822;4.376;2023-12-20T01:58:07;6.90;99.90
23827;DHT22;12094;50.822;4.376;2023-12-20T02:00:36;6.90;99.90
23827;DHT22;12094;50.822;4.376;2023-12-20T02:03:04;6.90;99.90
23827;DHT22;12094;50.822;4.376;2023-12-20T02:05:32;7.00;99.90
23827;DHT22;12094;50.822;4.376;2023-12-20T02:07:59;6.90;99.90
23827;DHT22;12094;50.822;4.376;2023-12-20T02:10:26;6.90;99.90
23827;DHT22;12094;50.822;4.376;2023-12-20T02:12:54;6.90;99.90
23827;DHT22;12094;50.822;4.376;2023-12-20T02:15:21;6.90;99.90
23827;DHT22;12094;50.822;4.376;2023-12-20T02:17:49;6.90;99.90
23827;DHT22;12094;50.822;4.376;2023-12-20T02:20:17;6.90;99.90
23827;DHT22;12094;50.822;4.376;2023-12-20T02:22:44;6.90;99.90
23827;DHT22;12094;50.822;4.376;2023-12-20T02:25:11;6.80;99.90
23827;DHT22;12094;50.822;4.376;2023-12-20T02:27:40;6.90;99.90
23827;DHT22;12094;50.822;4.376;2023-12-20T02:30:07;6.90;99.90
23827;DHT22;12094;50.822;4.376;2023-12-20T02:32:37;6.70;99.90
23827;DHT22;12094;50.822;4.376;2023-12-20T02:35:04;6.70;99.90
23827;DHT22;12094;50.822;4.376;2023-12-20T02:37:32;6.80;99.90
23827;DHT22;12094;50.822;4.376;2023-12-20T02:39:59;6.80;99.90
23827;DHT22;12094;50.822;4.376;2023-12-20T02:42:26;6.70;99.90
23827;DHT22;12094;50.822;4.376;2023-12-20T02:44:53;6.70;99.90
23827;DHT22;12094;50.822;4.376;2023-12-20T02:47:20;6.60;99.90
23827;DHT22;12094;50.822;4.376;2023-12-20T02:49:47;6.50;99.90
23827;DHT22;12094;50.822;4.376;2023-12-20T02:52:15;6.40;99.90
23827;DHT22;12094;50.822;4.376;2023-12-20T02:54:46;6.40;99.90
23827;DHT22;12094;50.822;4.376;2023-12-20T02:57:14;6.40;99.90
23827;DHT22;12094;50.822;4.376;2023-12-20T03:02:11;6.40;99.90
23827;DHT22;12094;50.822;4.376;2023-12-20T03:04:40;6.30;99.90
23827;DHT22;12094;50.822;4.376;2023-12-20T03:09:39;6.50;99.90
23827;DHT22;12094;50.822;4.376;2023-12-20T03:12:26;6.50;99.90
23827;DHT22;12094;50.822;4.376;2023-12-20T03:14:53;6.60;99.90
23827;DHT22;12094;50.822;4.376;2023-12-20T03:17:21;6.60;99.90
23827;DHT22;12094;50.822;4.376;2023-12-20T03:19:48;6.50;99.90
23827;DHT22;12094;50.822;4.376;2023-12-20T03:22:15;6.50;99.90
23827;DHT22;12094;50.822;4.376;2023-12-20T03:24:42;6.50;99.90
23827;DHT22;12094;50.822;4.376;2023-12-20T03:27:11;6.50;99.90
23827;DHT22;12094;50.822;4.376;2023-12-20T03:29:39;6.40;99.90
23827;DHT22;12094;50.822;4.376;2023-12-20T03:32:06;6.50;99.90
23827;DHT22;12094;50.822;4.376;2023-12-20T03:34:33;6.60;99.90
23827;DHT22;12094;50.822;4.376;2023-12-20T03:37:00;6.50;99.90
23827;DHT22;12094;50.822;4.376;2023-12-20T03:39:27;6.50;99.90
23827;DHT22;12094;50.822;4.376;2023-12-20T03:41:54;6.50;99.90
23827;DHT22;12094;50.822;4.376;2023-12-20T03:44:21;6.50;99.90
23827;DHT22;12094;50.822;4.376;2023-12-20T03:46:48;6.40;99.90
23827;DHT22;12094;50.822;4.376;2023-12-20T03:49:15;6.30;99.90
23827;DHT22;12094;50.822;4.376;2023-12-20T03:51:42;6.40;99.90
23827;DHT22;12094;50.822;4.376;2023-12-20T03:54:12;6.20;99.90
23827;DHT22;12094;50.822;4.376;2023-12-20T03:56:38;6.20;99.90
23827;DHT22;12094;50.822;4.376;2023-12-20T03:59:06;6.20;99.90
23827;DHT22;12094;50.822;4.376;2023-12-20T04:01:36;6.30;99.90
23827;DHT22;12094;50.822;4.376;2023-12-20T04:04:05;6.30;99.90
23827;DHT22;12094;50.822;4.376;2023-12-20T04:06:34;6.30;99.90
23827;DHT22;12094;50.822;4.376;2023-12-20T04:09:01;6.30;99.90
23827;DHT22;12094;50.822;4.376;2023-12-20T04:11:29;6.50;99.90
23827;DHT22;12094;50.822;4.376;2023-12-20T04:13:56;6.60;99.90
23827;DHT22;12094;50.822;4.376;2023-12-20T04:16:23;6.70;99.90
23827;DHT22;12094;50.822;4.376;2023-12-20T04:21:22;6.60;99.90
23827;DHT22;12094;50.822;4.376;2023-12-20T04:23:49;6.60;99.90
23827;DHT22;12094;50.822;4.376;2023-12-20T04:26:17;6.50;99.90
23827;DHT22;12094;50.822;4.376;2023-12-20T04:28:44;6.50;99.90
23827;DHT22;12094;50.822;4.376;2023-12-20T04:31:11;6.50;99.90
23827;DHT22;12094;50.822;4.376;2023-12-20T04:33:38;6.50;99.90
23827;DHT22;12094;50.822;4.376;2023-12-20T04:36:05;6.40;99.90
23827;DHT22;12094;50.822;4.376;2023-12-20T04:38:32;6.40;99.90
23827;DHT22;12094;50.822;4.376;2023-12-20T04:41:01;6.40;99.90
23827;DHT22;12094;50.822;4.376;2023-12-20T04:43:29;6.40;99.90
23827;DHT22;12094;50.822;4.376;2023-12-20T04:45:56;6.40;99.90
23827;DHT22;12094;50.822;4.376;2023-12-20T04:48:24;6.40;99.90
23827;DHT22;12094;50.822;4.376;2023-12-20T04:50:54;6.40;99.90
23827;DHT22;12094;50.822;4.376;2023-12-20T04:53:21;6.40;99.90
23827;DHT22;12094;50.822;4.376;2023-12-20T04:55:48;6.40;99.90
23827;DHT22;12094;50.822;4.376;2023-12-20T04:58:15;6.30;99.90
23827;DHT22;12094;50.822;4.376;2023-12-20T05:00:42;6.40;99.90
23827;DHT22;12094;50.822;4.376;2023-12-20T05:03:09;6.40;99.90
23827;DHT22;12094;50.822;4.376;2023-12-20T05:05:37;6.40;99.90
23827;DHT22;12094;50.822;4.376;2023-12-20T05:08:05;6.50;99.90
23827;DHT22;12094;50.822;4.376;2023-12-20T05:10:33;6.50;99.90
23827;DHT22;12094;50.822;4.376;2023-12-20T05:13:01;6.40;99.90
23827;DHT22;12094;50.822;4.376;2023-12-20T05:15:33;6.40;99.90
23827;DHT22;12094;50.822;4.376;2023-12-20T05:18:03;6.30;99.90
23827;DHT22;12094;50.822;4.376;2023-12-20T05:20:31;6.30;99.90
23827;DHT22;12094;50.822;4.376;2023-12-20T05:23:01;6.40;99.90
23827;DHT22;12094;50.822;4.376;2023-12-20T05:25:27;6.30;99.90
23827;DHT22;12094;50.822;4.376;2023-12-20T05:27:55;6.30;99.90
23827;DHT22;12094;50.822;4.376;2023-12-20T05:30:23;6.10;99.90
23827;DHT22;12094;50.822;4.376;2023-12-20T05:32:51;6.10;99.90
23827;DHT22;12094;50.822;4.376;2023-12-20T05:35:18;5.90;99.90
23827;DHT22;12094;50.822;4.376;2023-12-20T05:37:47;6.00;99.90
23827;DHT22;12094;50.822;4.376;2023-12-20T05:40:15;5.90;99.90
23827;DHT22;12094;50.822;4.376;2023-12-20T05:42:42;5.80;99.90
23827;DHT22;12094;50.822;4.376;2023-12-20T05:45:11;5.80;99.90
23827;DHT22;12094;50.822;4.376;2023-12-20T05:47:39;5.90;99.90
23827;DHT22;12094;50.822;4.376;2023-12-20T05:50:06;5.90;99.90
23827;DHT22;12094;50.822;4.376;2023-12-20T05:52:33;5.90;99.90
23827;DHT22;12094;50.822;4.376;2023-12-20T05:55:03;5.80;99.90
23827;DHT22;12094;50.822;4.376;2023-12-20T05:57:30;5.80;99.90
23827;DHT22;12094;50.822;4.376;2023-12-20T05:59:58;5.80;99.90
23827;DHT22;12094;50.822;4.376;2023-12-20T06:02:25;5.80;99.90
23827;DHT22;12094;50.822;4.376;2023-12-20T06:04:51;5.80;99.90
23827;DHT22;12094;50.822;4.376;2023-12-20T06:07:19;5.80;99.90
23827;DHT22;12094;50.822;4.376;2023-12-20T06:09:48;5.70;99.90
23827;DHT22;12094;50.822;4.376;2023-12-20T06:12:16;5.70;99.90
23827;DHT22;12094;50.822;4.376;2023-12-20T06:14:43;5.70;99.90
23827;DHT22;12094;50.822;4.376;2023-12-20T06:17:10;5.70;99.90
23827;DHT22;12094;50.822;4.376;2023-12-20T06:19:37;5.80;99.90
23827;DHT22;12094;50.822;4.376;2023-12-20T06:22:04;5.80;99.90
23827;DHT22;12094;50.822;4.376;2023-12-20T06:24:31;5.80;99.90
23827;DHT22;12094;50.822;4.376;2023-12-20T06:27:02;5.80;99.90
23827;DHT22;12094;50.822;4.376;2023-12-20T06:29:31;5.70;99.90
23827;DHT22;12094;50.822;4.376;2023-12-20T06:31:59;5.70;99.90
23827;DHT22;12094;50.822;4.376;2023-12-20T06:34:27;5.80;99.90
23827;DHT22;12094;50.822;4.376;2023-12-20T06:36:54;5.90;99.90
23827;DHT22;12094;50.822;4.376;2023-12-20T06:39:21;5.80;99.90
23827;DHT22;12094;50.822;4.376;2023-12-20T06:41:50;5.80;99.90
23827;DHT22;12094;50.822;4.376;2023-12-20T06:44:18;5.80;99.90
23827;DHT22;12094;50.822;4.376;2023-12-20T06:46:45;5.80;99.90
23827;DHT22;12094;50.822;4.376;2023-12-20T06:49:14;5.70;99.90
23827;DHT22;12094;50.822;4.376;2023-12-20T06:51:43;5.70;99.90
23827;DHT22;12094;50.822;4.376;2023-12-20T06:54:12;5.70;99.90
23827;DHT22;12094;50.822;4.376;2023-12-20T06:56:39;5.60;99.90
23827;DHT22;12094;50.822;4.376;2023-12-20T06:59:06;5.50;99.90
23827;DHT22;12094;50.822;4.376;2023-12-20T07:04:04;5.40;99.90
23827;DHT22;12094;50.822;4.376;2023-12-20T07:06:31;5.30;99.90
23827;DHT22;12094;50.822;4.376;2023-12-20T07:09:02;5.30;99.90
23827;DHT22;12094;50.822;4.376;2023-12-20T07:11:30;5.30;99.90
23827;DHT22;12094;50.822;4.376;2023-12-20T07:13:58;5.30;99.90
23827;DHT22;12094;50.822;4.376;2023-12-20T07:16:32;5.30;99.90
23827;DHT22;12094;50.822;4.376;2023-12-20T07:19:02;5.40;99.90
23827;DHT22;12094;50.822;4.376;2023-12-20T07:21:34;5.40;99.90
23827;DHT22;12094;50.822;4.376;2023-12-20T07:24:01;5.40;99.90
23827;DHT22;12094;50.822;4.376;2023-12-20T07:26:31;5.40;99.90
23827;DHT22;12094;50.822;4.376;2023-12-20T07:29:02;5.30;99.90
23827;DHT22;12094;50.822;4.376;2023-12-20T07:31:36;5.30;99.90
23827;DHT22;12094;50.822;4.376;2023-12-20T07:34:04;5.30;99.90
23827;DHT22;12094;50.822;4.376;2023-12-20T07:36:33;5.30;99.90
23827;DHT22;12094;50.822;4.376;2023-12-20T07:39:01;5.20;99.90
23827;DHT22;12094;50.822;4.376;2023-12-20T07:41:28;5.20;99.90
23827;DHT22;12094;50.822;4.376;2023-12-20T07:43:58;5.20;99.90
23827;DHT22;12094;50.822;4.376;2023-12-20T07:46:29;5.20;99.90
23827;DHT22;12094;50.822;4.376;2023-12-20T07:48:57;5.10;99.90
23827;DHT22;12094;50.822;4.376;2023-12-20T07:51:27;5.20;99.90
23827;DHT22;12094;50.822;4.376;2023-12-20T07:56:49;5.20;99.90
23827;DHT22;12094;50.822;4.376;2023-12-20T07:59:21;5.20;99.90
23827;DHT22;12094;50.822;4.376;2023-12-20T08:02:01;5.20;99.90
23827;DHT22;12094;50.822;4.376;2023-12-20T08:04:30;5.30;99.90
23827;DHT22;12094;50.822;4.376;2023-12-20T08:07:04;5.30;99.90
23827;DHT22;12094;50.822;4.376;2023-12-20T08:09:33;5.30;99.90
23827;DHT22;12094;50.822;4.376;2023-12-20T08:12:04;5.30;99.90
23827;DHT22;12094;50.822;4.376;2023-12-20T08:14:31;5.30;99.90
23827;DHT22;12094;50.822;4.376;2023-12-20T08:16:59;5.30;99.90
23827;DHT22;12094;50.822;4.376;2023-12-20T08:19:28;5.30;99.90
23827;DHT22;12094;50.822;4.376;2023-12-20T08:21:55;5.30;99.90
23827;DHT22;12094;50.822;4.376;2023-12-20T08:24:22;5.30;99.90
23827;DHT22;12094;50.822;4.376;2023-12-20T08:26:49;5.30;99.90
23827;DHT22;12094;50.822;4.376;2023-12-20T08:29:16;5.30;99.90
23827;DHT22;12094;50.822;4.376;2023-12-20T08:31:51;5.40;99.90
23827;DHT22;12094;50.822;4.376;2023-12-20T08:34:22;5.40;99.90
23827;DHT22;12094;50.822;4.376;2023-12-20T08:36:52;5.40;99.90
23827;DHT22;12094;50.822;4.376;2023-12-20T08:39:36;5.40;99.90
23827;DHT22;12094;50.822;4.376;2023-12-20T08:42:13;5.50;99.90
23827;DHT22;12094;50.822;4.376;2023-12-20T08:44:41;5.50;99.90
23827;DHT22;12094;50.822;4.376;2023-12-20T08:49:46;5.60;99.90
23827;DHT22;12094;50.822;4.376;2023-12-20T08:52:16;5.50;99.90
23827;DHT22;12094;50.822;4.376;2023-12-20T08:54:48;5.50;99.90
23827;DHT22;12094;50.822;4.376;2023-12-20T08:57:19;5.50;99.90
23827;DHT22;12094;50.822;4.376;2023-12-20T08:59:54;5.50;99.90
23827;DHT22;12094;50.822;4.376;2023-12-20T09:02:22;5.60;99.90
23827;DHT22;12094;50.822;4.376;2023-12-20T09:04:49;5.60;99.90
23827;DHT22;12094;50.822;4.376;2023-12-20T09:07:21;5.70;99.90
23827;DHT22;12094;50.822;4.376;2023-12-20T09:09:50;5.70;99.90
23827;DHT22;12094;50.822;4.376;2023-12-20T09:12:19;5.80;99.90
23827;DHT22;12094;50.822;4.376;2023-12-20T09:14:48;5.80;99.90
23827;DHT22;12094;50.822;4.376;2023-12-20T09:17:17;5.80;99.90
23827;DHT22;12094;50.822;4.376;2023-12-20T09:19:46;5.90;99.90
23827;DHT22;12094;50.822;4.376;2023-12-20T09:22:14;5.90;99.90
23827;DHT22;12094;50.822;4.376;2023-12-20T09:24:48;5.90;99.90
23827;DHT22;12094;50.822;4.376;2023-12-20T09:27:33;6.00;99.90
23827;DHT22;12094;50.822;4.376;2023-12-20T09:30:10;6.00;99.90
23827;DHT22;12094;50.822;4.376;2023-12-20T09:32:38;6.00;99.90
23827;DHT22;12094;50.822;4.376;2023-12-20T09:35:06;6.10;99.90
23827;DHT22;12094;50.822;4.376;2023-12-20T09:37:38;6.20;99.90
23827;DHT22;12094;50.822;4.376;2023-12-20T09:40:09;6.30;99.90
23827;DHT22;12094;50.822;4.376;2023-12-20T09:45:30;6.50;99.90
23827;DHT22;12094;50.822;4.376;2023-12-20T09:47:57;6.50;99.90
23827;DHT22;12094;50.822;4.376;2023-12-20T09:50:25;6.50;99.90
23827;DHT22;12094;50.822;4.376;2023-12-20T09:52:55;6.60;99.90
23827;DHT22;12094;50.822;4.376;2023-12-20T09:55:29;6.70;99.90
23827;DHT22;12094;50.822;4.376;2023-12-20T09:57:59;6.80;99.90
23827;DHT22;12094;50.822;4.376;2023-12-20T10:00:28;6.90;99.90
23827;DHT22;12094;50.822;4.376;2023-12-20T10:05:26;6.90;99.90
23827;DHT22;12094;50.822;4.376;2023-12-20T10:07:54;7.00;99.90
23827;DHT22;12094;50.822;4.376;2023-12-20T10:10:23;6.90;99.90
23827;DHT22;12094;50.822;4.376;2023-12-20T10:13:01;6.80;99.90
23827;DHT22;12094;50.822;4.376;2023-12-20T10:15:29;6.80;99.90
23827;DHT22;12094;50.822;4.376;2023-12-20T10:17:56;6.90;99.90
23827;DHT22;12094;50.822;4.376;2023-12-20T10:20:28;6.80;99.90
23827;DHT22;12094;50.822;4.376;2023-12-20T10:22:59;6.80;99.90
23827;DHT22;12094;50.822;4.376;2023-12-20T10:25:28;6.70;99.90
23827;DHT22;12094;50.822;4.376;2023-12-20T10:28:10;6.80;99.90
23827;DHT22;12094;50.822;4.376;2023-12-20T10:30:46;6.90;99.90
23827;DHT22;12094;50.822;4.376;2023-12-20T10:33:13;6.90;99.90
23827;DHT22;12094;50.822;4.376;2023-12-20T10:35:44;6.90;99.90
23827;DHT22;12094;50.822;4.376;2023-12-20T10:38:13;6.90;99.90
23827;DHT22;12094;50.822;4.376;2023-12-20T10:40:43;7.10;99.90
23827;DHT22;12094;50.822;4.376;2023-12-20T10:43:13;7.00;99.90
23827;DHT22;12094;50.822;4.376;2023-12-20T10:45:44;7.10;99.90
23827;DHT22;12094;50.822;4.376;2023-12-20T10:48:13;7.10;99.90
23827;DHT22;12094;50.822;4.376;2023-12-20T10:50:40;7.20;99.90
23827;DHT22;12094;50.822;4.376;2023-12-20T10:53:08;7.30;99.90
23827;DHT22;12094;50.822;4.376;2023-12-20T10:55:35;7.50;99.90
23827;DHT22;12094;50.822;4.376;2023-12-20T10:58:09;7.50;99.90
23827;DHT22;12094;50.822;4.376;2023-12-20T11:00:43;7.60;99.90
23827;DHT22;12094;50.822;4.376;2023-12-20T11:03:17;7.60;99.90
23827;DHT22;12094;50.822;4.376;2023-12-20T11:05:58;7.60;99.90
23827;DHT22;12094;50.822;4.376;2023-12-20T11:08:28;7.60;99.90
23827;DHT22;12094;50.822;4.376;2023-12-20T11:11:16;7.60;99.90
23827;DHT22;12094;50.822;4.376;2023-12-20T11:14:00;7.60;99.90
23827;DHT22;12094;50.822;4.376;2023-12-20T11:16:37;7.70;99.90
23827;DHT22;12094;50.822;4.376;2023-12-20T11:19:24;7.60;99.90
23827;DHT22;12094;50.822;4.376;2023-12-20T11:21:56;7.70;99.90
23827;DHT22;12094;50.822;4.376;2023-12-20T11:24:43;7.70;99.90
23827;DHT22;12094;50.822;4.376;2023-12-20T11:27:25;7.80;99.90
23827;DHT22;12094;50.822;4.376;2023-12-20T11:29:57;7.90;99.90
23827;DHT22;12094;50.822;4.376;2023-12-20T11:32:51;7.90;99.90
23827;DHT22;12094;50.822;4.376;2023-12-20T11:35:35;8.00;99.90
23827;DHT22;12094;50.822;4.376;2023-12-20T11:38:09;8.00;99.90
23827;DHT22;12094;50.822;4.376;2023-12-20T11:40:42;7.90;99.90
23827;DHT22;12094;50.822;4.376;2023-12-20T11:43:11;7.90;99.90
23827;DHT22;12094;50.822;4.376;2023-12-20T11:45:48;7.90;99.90
23827;DHT22;12094;50.822;4.376;2023-12-20T11:48:18;7.90;99.90
23827;DHT22;12094;50.822;4.376;2023-12-20T11:50:48;8.00;99.90
23827;DHT22;12094;50.822;4.376;2023-12-20T11:53:17;8.00;99.90
23827;DHT22;12094;50.822;4.376;2023-12-20T11:55:51;7.90;99.90
23827;DHT22;12094;50.822;4.376;2023-12-20T11:58:49;7.90;99.90
23827;DHT22;12094;50.822;4.376;2023-12-20T12:01:52;7.90;99.90
23827;DHT22;12094;50.822;4.376;2023-12-20T12:07:24;8.00;99.90
23827;DHT22;12094;50.822;4.376;2023-12-20T12:13:54;8.10;99.90
23827;DHT22;12094;50.822;4.376;2023-12-20T12:16:45;8.20;99.90
23827;DHT22;12094;50.822;4.376;2023-12-20T12:19:23;8.10;99.90
23827;DHT22;12094;50.822;4.376;2023-12-20T12:22:04;8.20;99.90
23827;DHT22;12094;50.822;4.376;2023-12-20T12:24:45;8.30;99.90
23827;DHT22;12094;50.822;4.376;2023-12-20T12:27:13;8.30;99.90
23827;DHT22;12094;50.822;4.376;2023-12-20T12:29:43;8.50;99.90
23827;DHT22;12094;50.822;4.376;2023-12-20T12:32:26;8.50;99.90
23827;DHT22;12094;50.822;4.376;2023-12-20T12:34:54;8.60;99.90
23827;DHT22;12094;50.822;4.376;2023-12-20T12:37:22;8.70;99.90
23827;DHT22;12094;50.822;4.376;2023-12-20T12:39:53;8.70;99.90
23827;DHT22;12094;50.822;4.376;2023-12-20T12:42:23;8.60;99.90
23827;DHT22;12094;50.822;4.376;2023-12-20T12:44:57;8.60;99.90
23827;DHT22;12094;50.822;4.376;2023-12-20T12:47:26;8.60;99.90
23827;DHT22;12094;50.822;4.376;2023-12-20T12:49:57;8.60;99.90
23827;DHT22;12094;50.822;4.376;2023-12-20T12:52:30;8.60;99.90
23827;DHT22;12094;50.822;4.376;2023-12-20T12:54:58;8.90;99.90
23827;DHT22;12094;50.822;4.376;2023-12-20T12:57:26;8.80;99.90
23827;DHT22;12094;50.822;4.376;2023-12-20T12:59:55;8.70;99.90
23827;DHT22;12094;50.822;4.376;2023-12-20T13:02:24;8.80;99.90
23827;DHT22;12094;50.822;4.376;2023-12-20T13:04:54;8.80;99.90
23827;DHT22;12094;50.822;4.376;2023-12-20T13:07:25;8.80;99.90
23827;DHT22;12094;50.822;4.376;2023-12-20T13:09:57;8.90;99.90
23827;DHT22;12094;50.822;4.376;2023-12-20T13:12:27;8.90;99.90
23827;DHT22;12094;50.822;4.376;2023-12-20T13:14:55;8.70;99.90
23827;DHT22;12094;50.822;4.376;2023-12-20T13:17:23;8.50;99.90
23827;DHT22;12094;50.822;4.376;2023-12-20T13:19:51;8.60;99.90
23827;DHT22;12094;50.822;4.376;2023-12-20T13:22:19;8.60;99.90
23827;DHT22;12094;50.822;4.376;2023-12-20T13:24:50;8.60;99.90
23827;DHT22;12094;50.822;4.376;2023-12-20T13:27:31;8.50;99.90
23827;DHT22;12094;50.822;4.376;2023-12-20T13:30:03;8.70;99.90
23827;DHT22;12094;50.822;4.376;2023-12-20T13:35:09;8.70;99.90
23827;DHT22;12094;50.822;4.376;2023-12-20T13:37:38;8.70;99.90
23827;DHT22;12094;50.822;4.376;2023-12-20T13:40:06;8.70;99.90
23827;DHT22;12094;50.822;4.376;2023-12-20T13:42:35;8.80;99.90
23827;DHT22;12094;50.822;4.376;2023-12-20T13:48:33;8.70;99.90
23827;DHT22;12094;50.822;4.376;2023-12-20T13:55:03;8.80;99.90
23827;DHT22;12094;50.822;4.376;2023-12-20T13:57:40;8.80;99.90
23827;DHT22;12094;50.822;4.376;2023-12-20T14:00:22;8.90;99.90
23827;DHT22;12094;50.822;4.376;2023-12-20T14:02:51;8.90;99.90
23827;DHT22;12094;50.822;4.376;2023-12-20T14:05:20;9.00;99.90
23827;DHT22;12094;50.822;4.376;2023-12-20T14:07:51;9.00;99.90
23827;DHT22;12094;50.822;4.376;2023-12-20T14:10:21;9.10;99.90
23827;DHT22;12094;50.822;4.376;2023-12-20T14:15:52;9.10;99.90
23827;DHT22;12094;50.822;4.376;2023-12-20T14:18:26;9.10;99.90
23827;DHT22;12094;50.822;4.376;2023-12-20T14:20:59;9.10;99.90
23827;DHT22;12094;50.822;4.376;2023-12-20T14:23:40;9.10;99.90
23827;DHT22;12094;50.822;4.376;2023-12-20T14:26:15;9.10;99.90
23827;DHT22;12094;50.822;4.376;2023-12-20T14:28:47;9.10;99.90
23827;DHT22;12094;50.822;4.376;2023-12-20T14:31:17;9.10;99.90
23827;DHT22;12094;50.822;4.376;2023-12-20T14:33:44;9.10;99.90
23827;DHT22;12094;50.822;4.376;2023-12-20T14:36:13;9.10;99.90
23827;DHT22;12094;50.822;4.376;2023-12-20T14:38:57;9.10;99.90
23827;DHT22;12094;50.822;4.376;2023-12-20T14:41:28;9.00;99.90
23827;DHT22;12094;50.822;4.376;2023-12-20T14:43:59;9.00;99.90
23827;DHT22;12094;50.822;4.376;2023-12-20T14:46:30;9.00;99.90
23827;DHT22;12094;50.822;4.376;2023-12-20T14:49:11;9.00;99.90
23827;DHT22;12094;50.822;4.376;2023-12-20T14:51:47;9.00;99.90
23827;DHT22;12094;50.822;4.376;2023-12-20T14:54:17;9.10;99.90
23827;DHT22;12094;50.822;4.376;2023-12-20T14:56:45;9.10;99.90
23827;DHT22;12094;50.822;4.376;2023-12-20T14:59:27;9.20;99.90
23827;DHT22;12094;50.822;4.376;2023-12-20T15:01:55;9.30;99.90
23827;DHT22;12094;50.822;4.376;2023-12-20T15:04:27;9.30;99.90
23827;DHT22;12094;50.822;4.376;2023-12-20T15:06:59;9.30;99.90
23827;DHT22;12094;50.822;4.376;2023-12-20T15:09:42;9.20;99.90
23827;DHT22;12094;50.822;4.376;2023-12-20T15:12:19;9.30;99.90
23827;DHT22;12094;50.822;4.376;2023-12-20T15:14:48;9.30;99.90
23827;DHT22;12094;50.822;4.376;2023-12-20T15:20:40;9.30;99.90
23827;DHT22;12094;50.822;4.376;2023-12-20T15:23:45;9.30;99.90
23827;DHT22;12094;50.822;4.376;2023-12-20T15:26:37;9.30;99.90
23827;DHT22;12094;50.822;4.376;2023-12-20T15:29:15;9.30;99.90
23827;DHT22;12094;50.822;4.376;2023-12-20T15:31:45;9.30;99.90
23827;DHT22;12094;50.822;4.376;2023-12-20T15:34:13;9.20;99.90
23827;DHT22;12094;50.822;4.376;2023-12-20T15:43:02;9.30;99.90
23827;DHT22;12094;50.822;4.376;2023-12-20T15:45:33;9.40;99.90
23827;DHT22;12094;50.822;4.376;2023-12-20T15:48:00;9.40;99.90
23827;DHT22;12094;50.822;4.376;2023-12-20T15:50:43;9.50;99.90
23827;DHT22;12094;50.822;4.376;2023-12-20T15:53:15;9.50;99.90
23827;DHT22;12094;50.822;4.376;2023-12-20T15:55:45;9.50;99.90
23827;DHT22;12094;50.822;4.376;2023-12-20T15:58:19;9.50;99.90
23827;DHT22;12094;50.822;4.376;2023-12-20T16:03:43;9.40;99.90
23827;DHT22;12094;50.822;4.376;2023-12-20T16:06:25;9.40;99.90
23827;DHT22;12094;50.822;4.376;2023-12-20T16:08:55;9.40;99.90
23827;DHT22;12094;50.822;4.376;2023-12-20T16:11:31;9.40;99.90
23827;DHT22;12094;50.822;4.376;2023-12-20T16:17:01;9.40;99.90
23827;DHT22;12094;50.822;4.376;2023-12-20T16:19:33;9.30;99.90
23827;DHT22;12094;50.822;4.376;2023-12-20T16:22:10;9.30;99.90
23827;DHT22;12094;50.822;4.376;2023-12-20T16:24:40;9.40;99.90
23827;DHT22;12094;50.822;4.376;2023-12-20T16:27:08;9.30;99.90
23827;DHT22;12094;50.822;4.376;2023-12-20T16:29:51;9.30;99.90
23827;DHT22;12094;50.822;4.376;2023-12-20T16:32:21;9.40;99.90
23827;DHT22;12094;50.822;4.376;2023-12-20T16:38:03;9.30;99.90
23827;DHT22;12094;50.822;4.376;2023-12-20T16:40:41;9.40;99.90
23827;DHT22;12094;50.822;4.376;2023-12-20T16:43:17;9.30;99.90
23827;DHT22;12094;50.822;4.376;2023-12-20T16:49:39;9.30;99.90
23827;DHT22;12094;50.822;4.376;2023-12-20T16:55:34;9.30;99.90
23827;DHT22;12094;50.822;4.376;2023-12-20T16:58:03;9.10;99.90
23827;DHT22;12094;50.822;4.376;2023-12-20T17:00:35;9.10;99.90
23827;DHT22;12094;50.822;4.376;2023-12-20T17:03:07;9.20;99.90
23827;DHT22;12094;50.822;4.376;2023-12-20T17:05:37;9.20;99.90
23827;DHT22;12094;50.822;4.376;2023-12-20T17:08:15;9.20;99.90
23827;DHT22;12094;50.822;4.376;2023-12-20T17:10:49;9.20;99.90